Time;durP1;ratioP1;P1;durP2;ratioP2;P2;SDS_P1;SDS_P2;PMS_P1;PMS_P2;Temp;Humidity;BMP_temperature;BMP_pressure;BME280_temperature;BME280_humidity;BME280_pressure;Samples;Min_cycle;Max_cycle;Signal;HPM_P1;HPM_P2
2023/12/20 00:01:02;;;;;;;;;;;;;;;7.91;100.00;99793.88;5028454;28;20020;-86
2023/12/20 00:03:27;;;;;;;;;;;;;;;7.91;100.00;99793.88;5033145;28;19924;-87
2023/12/20 00:05:52;;;;;;;;;;;;;;;7.91;100.00;99792.09;5032904;28;19924;-86
2023/12/20 00:08:17;;;;;;;;;;;;;;;7.62;100.00;99788.59;5031785;28;19921;-87
2023/12/20 00:10:43;;;;;;;;;;;;;;;6.96;100.00;99797.59;5030351;28;19928;-84
2023/12/20 00:13:08;;;;;;;;;;;;;;;6.61;100.00;99781.84;5032740;28;19921;-88
2023/12/20 00:15:34;;;;;;;;;;;;;;;6.45;100.00;99780.53;5032892;28;19917;-89
2023/12/20 00:18:00;;;;;;;;;;;;;;;6.32;100.00;99778.19;5032888;28;19925;-84
2023/12/20 00:20:28;;;;;;;;;;;;;;;6.25;100.00;99775.75;5032592;28;20003;-87
2023/12/20 00:22:56;;;;;;;;;;;;;;;6.10;100.00;99771.75;5032697;28;20004;-85
2023/12/20 00:25:21;;;;;;;;;;;;;;;5.95;100.00;99765.94;5031427;28;19921;-84
2023/12/20 00:27:46;;;;;;;;;;;;;;;5.90;100.00;99754.63;5032558;28;19917;-92
2023/12/20 00:30:11;;;;;;;;;;;;;;;5.86;100.00;99753.00;5032579;28;19921;-89
2023/12/20 00:32:38;;;;;;;;;;;;;;;5.77;100.00;99753.22;5032670;28;19924;-87
2023/12/20 00:35:03;;;;;;;;;;;;;;;5.70;100.00;99749.88;5032827;28;19948;-84
2023/12/20 00:37:28;;;;;;;;;;;;;;;5.67;100.00;99747.31;5032538;28;19917;-91
2023/12/20 00:39:54;;;;;;;;;;;;;;;5.60;100.00;99746.59;5031316;28;19917;-84
2023/12/20 00:42:19;;;;;;;;;;;;;;;5.63;100.00;99750.91;5032319;28;19921;-85
2023/12/20 00:44:44;;;;;;;;;;;;;;;5.57;100.00;99762.44;5032493;28;20008;-84
2023/12/20 00:47:10;;;;;;;;;;;;;;;5.49;100.00;99764.38;5035461;28;19921;-94
2023/12/20 00:49:35;;;;;;;;;;;;;;;5.37;100.00;99748.88;5035015;28;20379;-90
2023/12/20 00:52:00;;;;;;;;;;;;;;;5.39;100.00;99737.44;5032778;28;20395;-85
2023/12/20 00:54:26;;;;;;;;;;;;;;;5.39;100.00;99741.81;5031358;28;19956;-84
2023/12/20 00:56:51;;;;;;;;;;;;;;;5.35;100.00;99730.53;5032352;28;19964;-86
2023/12/20 00:59:16;;;;;;;;;;;;;;;5.31;100.00;99733.25;5030853;28;20626;-85
2023/12/20 01:01:42;;;;;;;;;;;;;;;5.34;100.00;99733.19;5032311;28;19978;-85
2023/12/20 01:04:07;;;;;;;;;;;;;;;5.22;100.00;99729.94;5031930;28;19917;-84
2023/12/20 01:06:32;;;;;;;;;;;;;;;5.27;100.00;99729.81;5032379;28;19917;-86
2023/12/20 01:08:57;;;;;;;;;;;;;;;5.25;100.00;99729.00;5032059;28;19917;-84
2023/12/20 01:11:22;;;;;;;;;;;;;;;5.27;100.00;99741.19;5030419;28;19930;-85
2023/12/20 01:13:50;;;;;;;;;;;;;;;5.21;100.00;99743.09;5032848;28;19921;-86
2023/12/20 01:16:15;;;;;;;;;;;;;;;5.10;100.00;99740.69;5035848;28;19917;-83
2023/12/20 01:18:40;;;;;;;;;;;;;;;5.16;100.00;99737.09;5032568;28;19936;-82
2023/12/20 01:21:06;;;;;;;;;;;;;;;5.03;100.00;99732.06;5035585;28;19932;-83
2023/12/20 01:23:32;;;;;;;;;;;;;;;5.00;100.00;99750.53;5037086;28;19917;-85
2023/12/20 01:25:59;;;;;;;;;;;;;;;5.00;100.00;99747.91;5039349;28;19923;-82
2023/12/20 01:28:24;;;;;;;;;;;;;;;4.98;100.00;99740.94;5045311;28;19948;-83
2023/12/20 01:30:49;;;;;;;;;;;;;;;4.98;100.00;99730.44;5047178;28;19924;-83
2023/12/20 01:33:15;;;;;;;;;;;;;;;4.99;100.00;99729.53;5042321;28;19929;-83
2023/12/20 01:35:40;;;;;;;;;;;;;;;5.64;100.00;99737.72;5042750;28;19917;-80
2023/12/20 01:38:05;;;;;;;;;;;;;;;6.07;100.00;99729.75;5037057;28;19921;-82
2023/12/20 01:40:31;;;;;;;;;;;;;;;6.34;100.00;99739.53;5037987;28;19917;-90
2023/12/20 06:15:23;;;;;;;;;;;;;;;5.59;100.00;99960.41;4984050;28;19949;-84
2023/12/20 06:17:48;;;;;;;;;;;;;;;5.56;100.00;99962.25;4986537;28;19925;-88
2023/12/20 06:20:13;;;;;;;;;;;;;;;5.50;100.00;99963.22;4985673;28;19924;-87
2023/12/20 06:22:39;;;;;;;;;;;;;;;5.52;100.00;99960.56;4985765;28;19921;-84
2023/12/20 06:25:04;;;;;;;;;;;;;;;5.55;100.00;99960.50;4985068;28;19925;-86
2023/12/20 06:27:30;;;;;;;;;;;;;;;5.56;100.00;99965.72;4984719;28;19973;-89
2023/12/20 06:29:55;;;;;;;;;;;;;;;5.52;100.00;99969.34;4984399;28;19924;-85
2023/12/20 06:32:23;;;;;;;;;;;;;;;5.50;100.00;99971.09;4985926;28;19918;-83
2023/12/20 06:34:48;;;;;;;;;;;;;;;5.50;100.00;99975.50;4986454;28;19981;-90
2023/12/20 06:37:15;;;;;;;;;;;;;;;5.59;100.00;99973.56;4990915;28;20340;-84
2023/12/20 06:39:40;;;;;;;;;;;;;;;5.56;100.00;99975.38;4989191;28;19922;-87
2023/12/20 06:42:05;;;;;;;;;;;;;;;5.53;100.00;99975.44;4985076;28;19919;-86
2023/12/20 06:44:31;;;;;;;;;;;;;;;5.51;100.00;99969.34;4986348;28;19918;-84
2023/12/20 06:46:56;;;;;;;;;;;;;;;5.50;100.00;99960.59;5005232;28;19925;-84
2023/12/20 06:49:21;;;;;;;;;;;;;;;5.56;100.00;99959.63;4987004;28;20392;-85
2023/12/20 06:51:47;;;;;;;;;;;;;;;5.56;100.00;99970.97;4985684;28;19929;-84
2023/12/20 06:54:12;;;;;;;;;;;;;;;5.53;100.00;99964.94;4985403;28;19922;-85
2023/12/20 06:56:37;;;;;;;;;;;;;;;5.57;100.00;99966.63;5002822;28;19922;-85
2023/12/20 06:59:02;;;;;;;;;;;;;;;5.57;100.00;99964.84;4983465;28;19918;-85
2023/12/20 07:01:28;;;;;;;;;;;;;;;5.56;100.00;99962.25;4986645;28;19921;-85
2023/12/20 07:03:53;;;;;;;;;;;;;;;5.58;100.00;99963.94;4986500;28;20258;-89
2023/12/20 07:06:19;;;;;;;;;;;;;;;5.56;100.00;99968.34;5001693;28;19921;-88
2023/12/20 07:08:44;;;;;;;;;;;;;;;5.57;100.00;99970.09;4984775;28;20306;-85
2023/12/20 07:11:09;;;;;;;;;;;;;;;5.58;100.00;99979.69;5033637;22;20024;-93
2023/12/20 07:13:34;;;;;;;;;;;;;;;5.57;100.00;99987.66;4998990;28;19918;-87
2023/12/20 07:16:00;;;;;;;;;;;;;;;5.62;100.00;99985.78;5005129;28;19922;-91
2023/12/20 07:18:25;;;;;;;;;;;;;;;5.57;100.00;99983.25;5001924;28;20388;-87
2023/12/20 07:20:50;;;;;;;;;;;;;;;5.57;100.00;99970.09;5005247;28;20400;-84
2023/12/20 07:23:15;;;;;;;;;;;;;;;5.54;100.00;99983.31;5005667;28;19918;-86
2023/12/20 07:25:41;;;;;;;;;;;;;;;5.56;100.00;99975.38;5006284;28;19961;-85
2023/12/20 07:28:06;;;;;;;;;;;;;;;5.57;100.00;99978.00;5005657;28;19925;-92
2023/12/20 07:30:31;;;;;;;;;;;;;;;5.55;100.00;99982.41;5019410;28;19928;-94
2023/12/20 07:32:56;;;;;;;;;;;;;;;5.56;100.00;99984.13;5002865;28;20259;-87
2023/12/20 07:35:23;;;;;;;;;;;;;;;5.55;100.00;99990.31;5006972;28;19917;-88
2023/12/20 07:37:48;;;;;;;;;;;;;;;5.56;100.00;99997.28;4999278;28;19918;-92
2023/12/20 07:40:13;;;;;;;;;;;;;;;5.57;100.00;99993.75;4994809;28;19933;-95
2023/12/20 07:42:38;;;;;;;;;;;;;;;5.59;100.00;100002.47;4994260;28;19913;-85
2023/12/20 07:45:04;;;;;;;;;;;;;;;5.57;100.00;100012.16;4992866;28;19918;-90
2023/12/20 07:47:29;;;;;;;;;;;;;;;5.58;100.00;100016.50;4994102;28;19925;-89
2023/12/20 07:49:54;;;;;;;;;;;;;;;5.57;100.00;100019.19;4992760;28;19983;-88
2023/12/20 07:52:21;;;;;;;;;;;;;;;5.57;100.00;100027.94;4993943;28;20276;-90
2023/12/20 07:54:47;;;;;;;;;;;;;;;5.58;100.00;100032.28;4993824;28;20288;-88
2023/12/20 07:57:12;;;;;;;;;;;;;;;5.58;100.00;100034.03;4992646;28;19922;-94
2023/12/20 07:59:37;;;;;;;;;;;;;;;5.60;100.00;100033.13;4993797;28;19929;-92
2023/12/20 08:02:03;;;;;;;;;;;;;;;5.62;100.00;100038.38;4992971;28;19928;-91
2023/12/20 08:04:28;;;;;;;;;;;;;;;5.58;100.00;100027.00;4995216;28;20008;-93
2023/12/20 08:06:53;;;;;;;;;;;;;;;5.58;100.00;100034.91;4994903;28;20020;-92
2023/12/20 08:09:19;;;;;;;;;;;;;;;5.61;100.00;100034.84;4995616;28;19914;-93
2023/12/20 08:11:47;;;;;;;;;;;;;;;5.60;100.00;100033.13;4996515;28;19922;-91
2023/12/20 08:14:13;;;;;;;;;;;;;;;5.61;100.00;100034.84;4992249;28;19972;-88
2023/12/20 08:16:38;;;;;;;;;;;;;;;5.57;100.00;100046.34;5008084;28;19917;-89
2023/12/20 08:19:03;;;;;;;;;;;;;;;5.57;100.00;100035.81;4993679;28;19929;-90
2023/12/20 08:21:28;;;;;;;;;;;;;;;5.59;100.00;100039.28;4992227;28;19918;-91
2023/12/20 08:23:53;;;;;;;;;;;;;;;5.61;100.00;100039.25;4992096;28;19921;-90
2023/12/20 08:26:22;;;;;;;;;;;;;;;5.61;100.00;100050.63;4992061;28;19972;-88
2023/12/20 08:28:48;;;;;;;;;;;;;;;5.59;100.00;100041.91;4991241;28;19965;-94
2023/12/20 08:31:14;;;;;;;;;;;;;;;5.61;100.00;100053.25;4994259;28;20363;-94
2023/12/20 08:33:40;;;;;;;;;;;;;;;5.62;100.00;100044.47;4995271;28;19925;-87
2023/12/20 08:36:05;;;;;;;;;;;;;;;5.61;100.00;100047.13;4995341;28;19996;-82
2023/12/20 08:38:30;;;;;;;;;;;;;;;5.63;100.00;100045.34;4997792;28;19925;-82
2023/12/20 08:40:56;;;;;;;;;;;;;;;5.62;100.00;100033.97;4997085;28;20008;-82
2023/12/20 09:04:36;;;;;;;;;;;;;;;5.69;100.00;100049.63;5005571;28;19936;-82
2023/12/20 09:07:01;;;;;;;;;;;;;;;5.67;100.00;100046.16;5002902;28;19921;-83
2023/12/20 09:09:26;;;;;;;;;;;;;;;5.69;100.00;100054.88;5002411;28;20029;-83
2023/12/20 09:11:51;;;;;;;;;;;;;;;5.69;100.00;100052.25;5002672;28;19960;-82
2023/12/20 09:14:17;;;;;;;;;;;;;;;5.69;100.00;100050.47;5002236;28;19918;-86
2023/12/20 09:16:42;;;;;;;;;;;;;;;5.70;100.00;100057.50;5001267;28;20020;-85
2023/12/20 09:19:07;;;;;;;;;;;;;;;5.70;100.00;100049.59;5001738;28;19997;-82
2023/12/20 09:21:32;;;;;;;;;;;;;;;5.72;100.00;100054.84;5000989;28;19917;-86
2023/12/20 09:23:58;;;;;;;;;;;;;;;5.71;100.00;100053.09;5003216;28;19918;-87
2023/12/20 09:26:23;;;;;;;;;;;;;;;5.73;100.00;100048.69;5003146;28;20284;-83
2023/12/20 09:28:49;;;;;;;;;;;;;;;5.72;100.00;100055.69;5003686;28;19977;-83
2023/12/20 09:31:14;;;;;;;;;;;;;;;5.72;100.00;100050.44;5001064;28;20148;-83
2023/12/20 09:33:39;;;;;;;;;;;;;;;5.73;100.00;100051.31;5002050;28;19921;-86
2023/12/20 09:36:05;;;;;;;;;;;;;;;5.75;100.00;100060.03;5002285;28;20336;-87
2023/12/20 09:38:30;;;;;;;;;;;;;;;5.76;100.00;100067.00;5002035;28;19948;-83
2023/12/20 09:40:56;;;;;;;;;;;;;;;5.78;100.00;100068.72;5003369;28;20377;-92
2023/12/20 09:43:23;;;;;;;;;;;;;;;5.78;100.00;100078.38;5006691;28;20298;-88
2023/12/20 09:45:51;;;;;;;;;;;;;;;5.79;100.00;100074.84;5006715;28;19965;-89
2023/12/20 09:48:18;;;;;;;;;;;;;;;5.78;100.00;100078.38;5004299;28;20245;-83
2023/12/20 09:50:43;;;;;;;;;;;;;;;5.80;100.00;100079.22;5006161;28;19965;-83
2023/12/20 09:53:10;;;;;;;;;;;;;;;5.79;100.00;100077.47;5012427;28;20348;-82
2023/12/20 09:55:36;;;;;;;;;;;;;;;5.82;100.00;100065.16;5040992;23;19929;-85
2023/12/20 09:58:01;;;;;;;;;;;;;;;5.83;100.00;100063.38;5043913;28;19965;-82
2023/12/20 10:00:26;;;;;;;;;;;;;;;5.80;100.00;100059.03;5035137;28;19917;-82
2023/12/20 10:02:57;;;;;;;;;;;;;;;5.83;100.00;100048.47;5039846;28;19980;-82
2023/12/20 10:05:26;;;;;;;;;;;;;;;5.83;100.00;100043.19;5040474;28;20005;-88
2023/12/20 10:07:51;;;;;;;;;;;;;;;5.83;100.00;100042.34;5026469;28;19923;-89
2023/12/20 10:10:16;;;;;;;;;;;;;;;5.85;100.00;100051.06;5025068;28;20004;-90
2023/12/20 10:13:00;;;;;;;;;;;;;;;5.84;100.00;100054.59;5024348;28;19968;-87
2023/12/20 10:15:25;;;;;;;;;;;;;;;5.87;100.00;100048.41;5025451;28;19918;-87
2023/12/20 10:17:50;;;;;;;;;;;;;;;5.89;100.00;100047.50;5023743;28;19917;-83
2023/12/20 10:20:16;;;;;;;;;;;;;;;5.90;100.00;100049.19;5025159;28;19925;-81
2023/12/20 10:22:41;;;;;;;;;;;;;;;5.91;100.00;100050.94;5025366;28;19970;-84
2023/12/20 10:25:07;;;;;;;;;;;;;;;5.93;100.00;100053.53;5025462;28;20008;-84
2023/12/20 10:27:33;;;;;;;;;;;;;;;5.90;100.00;100048.34;5023903;28;20012;-82
2023/12/20 10:29:59;;;;;;;;;;;;;;;5.91;100.00;100039.56;5024788;28;19913;-85
2023/12/20 10:32:25;;;;;;;;;;;;;;;5.95;100.00;100043.84;5023423;28;19971;-83
2023/12/20 10:34:51;;;;;;;;;;;;;;;5.96;100.00;100043.84;5025079;28;19924;-82
2023/12/20 10:37:22;;;;;;;;;;;;;;;5.96;100.00;100033.34;5025242;28;19917;-89
2023/12/20 10:39:52;;;;;;;;;;;;;;;6.00;100.00;100023.66;5023697;28;21153;-86
2023/12/20 10:42:20;;;;;;;;;;;;;;;5.98;100.00;100014.88;5022987;28;20377;-93
2023/12/20 10:44:46;;;;;;;;;;;;;;;5.97;100.00;100016.66;5023783;28;19964;-87
2023/12/20 10:47:13;;;;;;;;;;;;;;;6.00;100.00;100007.84;5023489;28;19928;-86
2023/12/20 10:49:39;;;;;;;;;;;;;;;5.99;100.00;100001.72;5024883;28;19917;-92
2023/12/20 10:52:05;;;;;;;;;;;;;;;6.01;100.00;100012.19;5022398;28;20004;-92
2023/12/20 10:54:30;;;;;;;;;;;;;;;6.03;100.00;100006.91;5024413;28;20027;-92
2023/12/20 10:56:57;;;;;;;;;;;;;;;6.06;100.00;100006.84;5024096;28;20036;-89
2023/12/20 10:59:23;;;;;;;;;;;;;;;6.07;100.00;100008.59;5024429;28;19940;-90
2023/12/20 11:01:50;;;;;;;;;;;;;;;6.07;100.00;100000.69;5022317;28;19920;-88
2023/12/20 11:04:20;;;;;;;;;;;;;;;6.09;100.00;100001.53;5023590;28;20380;-87
2023/12/20 11:07:01;;;;;;;;;;;;;;;6.07;100.00;99993.66;5023352;28;19921;-88
2023/12/20 11:09:34;;;;;;;;;;;;;;;6.09;100.00;99997.13;5023841;28;20355;-94
2023/12/20 11:12:04;;;;;;;;;;;;;;;6.11;100.00;99991.81;5023984;28;19993;-92
2023/12/20 11:14:34;;;;;;;;;;;;;;;6.11;100.00;99992.72;5023728;28;19947;-83
2023/12/20 11:17:12;;;;;;;;;;;;;;;6.08;100.00;99984.88;5022475;28;19952;-82
2023/12/20 11:19:43;;;;;;;;;;;;;;;6.11;100.00;99997.09;5038319;28;20312;-83
2023/12/20 11:22:08;;;;;;;;;;;;;;;6.11;100.00;99989.19;5023445;28;19924;-91
2023/12/20 11:24:33;;;;;;;;;;;;;;;6.12;100.00;99988.31;5024034;28;19917;-87
2023/12/20 11:26:59;;;;;;;;;;;;;;;6.10;100.00;99980.44;5024225;28;20016;-89
2023/12/20 11:29:32;;;;;;;;;;;;;;;6.11;100.00;99978.66;5023971;28;20426;-85
2023/12/20 11:31:57;;;;;;;;;;;;;;;6.12;100.00;99972.53;5020994;28;19929;-87
2023/12/20 11:34:26;;;;;;;;;;;;;;;6.15;100.00;99969.81;5023790;28;19923;-86
2023/12/20 11:36:56;;;;;;;;;;;;;;;6.14;100.00;99984.75;5023755;28;19917;-84
2023/12/20 11:39:22;;;;;;;;;;;;;;;6.17;100.00;99978.53;5022994;28;19925;-84
2023/12/20 11:41:49;;;;;;;;;;;;;;;6.15;100.00;99985.63;5023319;28;20297;-87
2023/12/20 11:44:17;;;;;;;;;;;;;;;6.17;100.00;99984.69;5023822;28;19972;-90
2023/12/20 11:46:42;;;;;;;;;;;;;;;6.17;100.00;99978.53;5022369;28;20324;-90
2023/12/20 11:49:07;;;;;;;;;;;;;;;6.17;100.00;99984.69;5023229;28;19918;-86
2023/12/20 11:51:33;;;;;;;;;;;;;;;6.21;100.00;99990.75;5023120;28;19921;-90
2023/12/20 11:53:58;;;;;;;;;;;;;;;6.20;100.00;99978.47;5023892;28;20391;-88
2023/12/20 11:56:23;;;;;;;;;;;;;;;6.21;100.00;99979.34;5023514;28;19925;-89
2023/12/20 11:58:49;;;;;;;;;;;;;;;6.19;100.00;99974.13;5021191;28;19969;-88
2023/12/20 12:01:14;;;;;;;;;;;;;;;6.24;100.00;99974.00;5021531;28;19918;-94
2023/12/20 12:03:40;;;;;;;;;;;;;;;6.24;100.00;99976.63;5023053;28;20368;-89
2023/12/20 12:06:07;;;;;;;;;;;;;;;6.23;100.00;99977.56;5022240;28;19924;-89
2023/12/20 12:08:33;;;;;;;;;;;;;;;6.26;100.00;99980.97;5023314;28;19925;-86
2023/12/20 12:10:58;;;;;;;;;;;;;;;6.25;100.00;99973.13;5022759;28;19925;-83
2023/12/20 12:13:27;;;;;;;;;;;;;;;6.26;100.00;99978.34;5022852;28;19921;-84
2023/12/20 12:15:53;;;;;;;;;;;;;;;6.26;100.00;99967.81;5022110;28;19925;-86
2023/12/20 12:18:18;;;;;;;;;;;;;;;6.26;100.00;99973.09;5021500;28;19979;-84
2023/12/20 12:20:44;;;;;;;;;;;;;;;6.28;100.00;99973.06;5022884;28;20442;-87
2023/12/20 12:23:09;;;;;;;;;;;;;;;6.30;100.00;99974.75;5021656;28;19917;-88
2023/12/20 12:25:37;;;;;;;;;;;;;;;6.33;100.00;99974.69;5021514;28;19918;-85
2023/12/20 12:28:03;;;;;;;;;;;;;;;6.32;100.00;99974.72;5021770;28;19956;-84
2023/12/20 12:30:28;;;;;;;;;;;;;;;6.34;100.00;99967.66;5022806;28;20446;-86
2023/12/20 12:32:53;;;;;;;;;;;;;;;6.33;100.00;99968.53;5020291;28;19921;-89
2023/12/20 12:35:19;;;;;;;;;;;;;;;6.34;100.00;99970.28;5021431;28;19917;-88
2023/12/20 12:37:45;;;;;;;;;;;;;;;6.34;100.00;99963.25;5022451;28;19957;-85
2023/12/20 12:40:10;;;;;;;;;;;;;;;6.34;100.00;99960.63;5023037;28;19924;-93
2023/12/20 12:42:36;;;;;;;;;;;;;;;6.36;100.00;99953.53;5022772;28;19964;-83
2023/12/20 12:45:01;;;;;;;;;;;;;;;6.35;100.00;99951.84;5022382;28;19929;-92
2023/12/20 12:47:28;;;;;;;;;;;;;;;6.36;100.00;99947.41;5021212;28;19920;-87
2023/12/20 12:49:54;;;;;;;;;;;;;;;6.39;100.00;99946.50;5036822;28;19971;-87
2023/12/20 12:52:20;;;;;;;;;;;;;;;6.40;100.00;99938.56;5022500;28;19918;-86
2023/12/20 12:54:46;;;;;;;;;;;;;;;6.40;100.00;99927.16;5022130;28;19929;-86
2023/12/20 12:57:12;;;;;;;;;;;;;;;6.44;100.00;99931.44;5022091;28;20387;-88
2023/12/20 12:59:37;;;;;;;;;;;;;;;6.43;100.00;99916.56;5022708;28;19928;-93
2023/12/20 13:02:03;;;;;;;;;;;;;;;6.43;100.00;99911.28;5019668;28;19949;-87
2023/12/20 13:04:29;;;;;;;;;;;;;;;6.43;100.00;99909.53;5022021;28;19936;-86
2023/12/20 13:06:55;;;;;;;;;;;;;;;6.44;100.00;99907.75;5022307;28;20368;-88
2023/12/20 13:09:20;;;;;;;;;;;;;;;6.44;100.00;99905.13;5020853;28;19925;-89
2023/12/20 13:11:45;;;;;;;;;;;;;;;6.46;100.00;99898.06;5022568;28;19922;-84
2023/12/20 13:14:15;;;;;;;;;;;;;;;6.48;100.00;99910.28;5020586;28;19918;-86
2023/12/20 13:16:40;;;;;;;;;;;;;;;6.49;100.00;99911.16;5019227;28;20023;-90
2023/12/20 13:19:06;;;;;;;;;;;;;;;6.50;100.00;99907.63;5022387;28;20015;-84
2023/12/20 13:21:31;;;;;;;;;;;;;;;6.49;100.00;99898.88;5022144;28;19928;-88
2023/12/20 13:23:56;;;;;;;;;;;;;;;6.50;100.00;99891.81;5021799;28;20517;-85
2023/12/20 13:26:22;;;;;;;;;;;;;;;6.51;100.00;99890.91;5021913;28;19928;-88
2023/12/20 13:28:47;;;;;;;;;;;;;;;6.53;100.00;99886.50;5021596;28;19921;-91
2023/12/20 13:31:12;;;;;;;;;;;;;;;6.53;100.00;99883.84;5020651;28;19917;-85
2023/12/20 13:33:37;;;;;;;;;;;;;;;6.55;100.00;99875.00;5022309;28;19940;-84
2023/12/20 13:36:04;;;;;;;;;;;;;;;6.56;100.00;99883.78;5021823;28;19921;-91
2023/12/20 13:38:29;;;;;;;;;;;;;;;6.57;100.00;99874.09;5021863;28;19921;-87
2023/12/20 13:40:54;;;;;;;;;;;;;;;6.57;100.00;99864.44;5020982;28;19924;-83
2023/12/20 13:43:25;;;;;;;;;;;;;;;6.60;100.00;99863.50;5020681;28;19917;-89
2023/12/20 13:45:51;;;;;;;;;;;;;;;6.61;100.00;99863.47;5020374;28;19927;-86
2023/12/20 13:48:16;;;;;;;;;;;;;;;6.63;100.00;99871.31;5019953;28;20008;-92
2023/12/20 13:50:41;;;;;;;;;;;;;;;6.64;100.00;99862.53;5022218;28;19984;-87
2023/12/20 13:53:07;;;;;;;;;;;;;;;6.64;100.00;99858.13;5020464;28;20353;-89
2023/12/20 13:55:32;;;;;;;;;;;;;;;6.66;100.00;99872.09;5020441;28;19933;-88
2023/12/20 13:57:57;;;;;;;;;;;;;;;6.67;100.00;99873.84;5020221;28;19921;-89
2023/12/20 14:00:26;;;;;;;;;;;;;;;6.69;100.00;99872.03;5022335;28;20093;-88
2023/12/20 14:02:52;;;;;;;;;;;;;;;6.69;100.00;99872.03;5018948;28;20380;-83
2023/12/20 14:05:17;;;;;;;;;;;;;;;6.71;100.00;99877.25;5021917;28;19917;-85
2023/12/20 14:07:46;;;;;;;;;;;;;;;6.71;100.00;99872.84;5022030;28;19921;-85
2023/12/20 14:10:13;;;;;;;;;;;;;;;6.73;100.00;99867.53;5019783;28;19933;-84
2023/12/20 14:12:38;;;;;;;;;;;;;;;6.75;100.00;99854.34;5019126;28;20015;-86
2023/12/20 14:15:07;;;;;;;;;;;;;;;6.77;100.00;99853.41;5021294;28;20008;-88
2023/12/20 14:17:34;;;;;;;;;;;;;;;6.76;100.00;99850.81;5020398;28;19921;-84
2023/12/20 14:19:59;;;;;;;;;;;;;;;6.83;100.00;99860.25;5021131;28;19917;-88
2023/12/20 14:22:25;;;;;;;;;;;;;;;6.83;100.00;99857.63;5021408;28;19917;-86
2023/12/20 14:24:50;;;;;;;;;;;;;;;6.82;100.00;99863.81;5022108;28;20353;-85
2023/12/20 14:27:15;;;;;;;;;;;;;;;6.86;100.00;99865.44;5022730;28;19973;-85
2023/12/20 14:29:41;;;;;;;;;;;;;;;6.86;100.00;99868.06;5025235;28;20292;-87
2023/12/20 14:32:06;;;;;;;;;;;;;;;6.88;100.00;99850.50;5021822;28;19979;-86
2023/12/20 14:34:31;;;;;;;;;;;;;;;6.90;100.00;99856.56;5027134;28;19925;-84
2023/12/20 14:36:57;;;;;;;;;;;;;;;6.86;100.00;99845.25;5024257;28;19917;-92
2023/12/20 14:39:22;;;;;;;;;;;;;;;6.94;100.00;99854.72;5026072;28;20292;-85
2023/12/20 14:41:48;;;;;;;;;;;;;;;6.92;100.00;99857.38;5025689;28;19917;-94
2023/12/20 14:44:13;;;;;;;;;;;;;;;6.96;100.00;99852.94;5024977;28;20005;-84
2023/12/20 14:46:39;;;;;;;;;;;;;;;6.96;100.00;99843.25;5022153;28;20369;-90
2023/12/20 14:49:05;;;;;;;;;;;;;;;6.97;100.00;99837.03;5024510;28;20399;-84
2023/12/20 14:51:30;;;;;;;;;;;;;;;6.99;100.00;99837.88;5024909;28;20253;-86
2023/12/20 14:53:55;;;;;;;;;;;;;;;6.97;100.00;99831.78;5024934;28;20015;-85
2023/12/20 14:56:22;;;;;;;;;;;;;;;7.02;100.00;99826.38;5024730;28;19925;-81
2023/12/20 14:58:47;;;;;;;;;;;;;;;7.01;100.00;99817.63;5024640;28;20372;-84
2023/12/20 15:01:13;;;;;;;;;;;;;;;7.02;100.00;99826.38;5023785;28;19995;-85
2023/12/20 15:03:39;;;;;;;;;;;;;;;7.07;100.00;99819.25;5024445;28;20368;-83
2023/12/20 15:06:04;;;;;;;;;;;;;;;7.06;100.00;99820.13;5024607;28;19922;-84
2023/12/20 15:08:30;;;;;;;;;;;;;;;7.11;100.00;99809.47;5024869;28;19921;-87
2023/12/20 15:10:55;;;;;;;;;;;;;;;7.11;100.00;99804.19;5024736;28;19972;-84
2023/12/20 15:13:21;;;;;;;;;;;;;;;7.15;100.00;99795.28;5024210;28;19917;-85
2023/12/20 15:15:47;;;;;;;;;;;;;;;7.15;100.00;99790.91;5024465;28;19917;-87
2023/12/20 15:18:13;;;;;;;;;;;;;;;7.17;100.00;99793.50;5023110;28;20409;-91
2023/12/20 15:20:38;;;;;;;;;;;;;;;7.20;100.00;99789.00;5023809;28;19985;-88
2023/12/20 15:23:06;;;;;;;;;;;;;;;7.18;100.00;99797.84;5024574;28;20368;-93
2023/12/20 15:25:32;;;;;;;;;;;;;;;7.24;100.00;99797.66;5024477;28;19917;-86
2023/12/20 15:27:57;;;;;;;;;;;;;;;7.21;100.00;99792.47;5024420;28;19924;-90
2023/12/20 15:30:25;;;;;;;;;;;;;;;7.22;100.00;99791.56;5030865;28;19918;-95
2023/12/20 15:32:51;;;;;;;;;;;;;;;7.24;100.00;99785.38;5036279;28;19918;-94
2023/12/20 15:35:16;;;;;;;;;;;;;;;7.25;100.00;99791.50;5027474;28;20376;-88
2023/12/20 15:37:42;;;;;;;;;;;;;;;7.29;100.00;99782.56;5027667;28;19989;-92
2023/12/20 15:40:09;;;;;;;;;;;;;;;7.27;100.00;99784.41;5024741;28;19928;-88
2023/12/20 15:42:36;;;;;;;;;;;;;;;7.30;100.00;99789.56;5023300;28;19963;-92
2023/12/20 15:45:04;;;;;;;;;;;;;;;7.31;100.00;99785.16;5026230;28;19921;-89
2023/12/20 15:47:29;;;;;;;;;;;;;;;7.30;100.00;99789.56;5020937;28;20332;-84
2023/12/20 15:49:55;;;;;;;;;;;;;;;7.37;100.00;99790.25;5023172;28;19924;-86
2023/12/20 15:52:20;;;;;;;;;;;;;;;7.35;100.00;99808.75;5023109;28;20011;-84
2023/12/20 15:54:47;;;;;;;;;;;;;;;7.39;100.00;99809.53;5023717;28;19917;-85
2023/12/20 15:57:12;;;;;;;;;;;;;;;7.39;100.00;99807.75;5022269;28;19925;-86
2023/12/20 15:59:37;;;;;;;;;;;;;;;7.41;100.00;99798.03;5023863;28;19983;-88
2023/12/20 16:02:03;;;;;;;;;;;;;;;7.41;100.00;99803.31;5020684;28;19928;-86
2023/12/20 16:04:28;;;;;;;;;;;;;;;7.41;100.00;99795.41;5022988;28;20365;-86
2023/12/20 16:06:54;;;;;;;;;;;;;;;7.42;100.00;99778.69;5023274;28;19978;-85
2023/12/20 16:09:19;;;;;;;;;;;;;;;7.42;100.00;99778.69;5023489;28;20447;-85
2023/12/20 16:11:45;;;;;;;;;;;;;;;7.47;100.00;99781.19;5022551;28;20357;-86
2023/12/20 16:14:15;;;;;;;;;;;;;;;7.50;100.00;99782.84;5022455;28;19921;-91
2023/12/20 16:16:40;;;;;;;;;;;;;;;7.52;100.00;99773.13;5021691;28;20063;-90
2023/12/20 16:19:07;;;;;;;;;;;;;;;7.51;100.00;99772.25;5023553;28;19980;-87
2023/12/20 16:21:32;;;;;;;;;;;;;;;7.51;100.00;99782.78;5022267;28;19921;-86
2023/12/20 16:23:57;;;;;;;;;;;;;;;7.55;100.00;99775.69;5023222;28;20407;-86
2023/12/20 16:26:23;;;;;;;;;;;;;;;7.55;100.00;99780.94;5021304;28;20344;-91
2023/12/20 16:28:48;;;;;;;;;;;;;;;7.59;100.00;99795.75;5022030;28;19949;-91
2023/12/20 16:31:13;;;;;;;;;;;;;;;7.57;100.00;99784.41;5021961;28;19917;-86
2023/12/20 16:33:41;;;;;;;;;;;;;;;7.58;100.00;99794.03;5021982;28;20329;-92
2023/12/20 16:36:07;;;;;;;;;;;;;;;7.62;100.00;99801.78;5019838;28;20361;-85
2023/12/20 16:38:32;;;;;;;;;;;;;;;7.67;100.00;99792.88;5021310;28;19921;-86
2023/12/20 16:40:58;;;;;;;;;;;;;;;7.72;100.00;99801.50;5022778;28;19917;-84
2023/12/20 16:43:23;;;;;;;;;;;;;;;7.71;100.00;99799.81;5022503;28;19975;-85
2023/12/20 16:45:49;;;;;;;;;;;;;;;7.70;100.00;99800.69;5022267;28;19921;-85
2023/12/20 16:48:14;;;;;;;;;;;;;;;7.70;100.00;99793.66;5022066;28;20364;-84
2023/12/20 16:50:39;;;;;;;;;;;;;;;7.71;100.00;99783.97;5021502;28;20012;-87
2023/12/20 16:53:04;;;;;;;;;;;;;;;7.73;100.00;99788.28;5020893;28;20024;-88
2023/12/20 16:55:30;;;;;;;;;;;;;;;7.77;100.00;99789.03;5022431;28;19918;-88
2023/12/20 16:57:56;;;;;;;;;;;;;;;7.78;100.00;99783.72;5023448;28;19922;-87
2023/12/20 17:00:22;;;;;;;;;;;;;;;7.76;100.00;99780.28;5021275;28;20397;-87
2023/12/20 17:02:47;;;;;;;;;;;;;;;7.78;100.00;99796.91;5021073;28;19959;-88
2023/12/20 17:05:13;;;;;;;;;;;;;;;7.78;100.00;99810.09;5022747;28;19969;-89
2023/12/20 17:07:38;;;;;;;;;;;;;;;7.77;100.00;99818.94;5020876;28;20357;-86
2023/12/20 17:10:03;;;;;;;;;;;;;;;7.79;100.00;99813.63;5022671;28;20007;-85
2023/12/20 17:12:29;;;;;;;;;;;;;;;7.75;100.00;99815.47;5019374;28;19921;-85
2023/12/20 17:14:54;;;;;;;;;;;;;;;7.77;100.00;99824.22;5022278;28;19990;-91
2023/12/20 17:17:19;;;;;;;;;;;;;;;7.77;100.00;99821.56;5021081;28;20004;-83
2023/12/20 17:19:44;;;;;;;;;;;;;;;6.46;100.00;99822.59;5037756;28;19948;-85
2023/12/20 17:22:10;;;;;;;;;;;;;;;5.61;100.00;99827.16;5022141;28;19925;-90
2023/12/20 17:24:35;;;;;;;;;;;;;;;5.27;100.00;99833.16;5021948;28;19925;-86
2023/12/20 17:27:01;;;;;;;;;;;;;;;5.05;100.00;99831.84;5022313;28;20342;-90
2023/12/20 17:29:27;;;;;;;;;;;;;;;4.93;100.00;99832.97;5022435;28;19917;-88
2023/12/20 17:31:52;;;;;;;;;;;;;;;4.74;100.00;99835.06;5023445;28;20032;-83